TBU weather

Fua'amotu International Airport
Nuku'alofa, Tongatapu, Tonga

Public forecast

Using degrees Celsius for public forecast. Weather courtesy of forecast.io.

METAR (pilot weather report)

Retrieved 2019/03/25 23:00 UTC (44 minutes ago):

NFTF 252300Z 10007KT 9999 FEW009 FEW017TCU BKN110 28/22 Q1015

TAF (pilot weather forecast)

Retrieved 2019/03/25 18:33 UTC (5 hours ago):

TAF NFTF 251702Z 2518/2618 12007KT 9999 FEW018 BKN100 PROB40 TEMPO 2518/2612 5000 TSRA BKN015 FEW018CB